x

Buoy M01 - Jordan Basin (44037) Wave Buoy

10:04am - Thu 28th Aug 2014 All times are EDT. -4 hours from GMT.

  • Sig Wave height 2.3ft
  • Peak Period 5s
  • Wind
    13mph, 16mph gusts
  • Sea Temp 66°f
  • Air Temp 65°f
  • Sea Pressure 1006.9mb
  • Buoy M01 - Jordan Basin
  • Buoy M01 - Jordan Basin

More Historic Weather Station data

Upgrade to MSW Pro to gain access to the past 30 days of data for over 8000 Wavebouys and Weather Stations around the globe.

Join Pro

Comparision Forecast

View Surf forecast
   
Thu 08/28 10:04am 2.5ft 5s 13 16 mph 1006.9mb 66f 65f
9:04am  -   -  9 13 mph 1006.7mb 65f 66f
8:04am 8ft 16s 11 13 mph 1006.8mb 65f 65f
4:04am 9ft 16s 4 7 mph 1006.6mb 65f 66f
3:04am 3.5ft 5s 4 7 mph 1006.7mb 65f 66f
Wed 08/27 8:04pm 4.5ft 6s 16 18 mph 1009.4mb 65f 68f
7:04pm 4.5ft 6s 11 13 mph 1009.6mb 65f 68f
12:04pm 4.5ft 5s 18 22 mph 1011.9mb 65f 67f
11:04am 4.5ft 5s 18 20 mph 1012.4mb 65f 67f
10:04am 4.5ft 5s 16 18 mph 1012.8mb 65f 67f
9:04am 4ft 6s 16 18 mph 1012.9mb 65f 67f
8:04am 4.5ft 8s 16 18 mph 1013.3mb 65f 67f
7:04am 5ft 8s 13 18 mph 1013.3mb 65f 67f
6:04am 4.5ft 8s 16 20 mph 1013.4mb 65f 67f
5:04am 3.5ft 5s 16 18 mph 1013.6mb 65f 67f
4:04am 4ft 5s 16 20 mph 1013.8mb 65f 67f
3:04am 5ft 5s 18 20 mph 1013.9mb 65f 67f
2:04am 4ft 5s 18 20 mph 1014.6mb 65f 67f
1:04am 4ft 4s 18 20 mph 1015.2mb 65f 66f
12:04am 3.5ft 4s 18 20 mph 1015.8mb 65f 66f
Tue 08/26 11:04pm 3.5ft 4s 16 18 mph 1016.2mb 65f 66f
10:04pm 3.5ft 8s 18 20 mph 1016.2mb 65f 66f
9:04pm 3.5ft 8s 16 18 mph 1016.5mb 65f 67f
8:04pm 3.5ft 8s 16 18 mph 1017mb 65f 67f
7:04pm 3ft 6s 13 16 mph 1017.2mb 65f 67f
6:04pm 3ft 8s 16
mph
1017.7mb 65f 67f
5:04pm 2.5ft 8s 13 16 mph 1018.1mb 65f 67f
4:04pm 3ft 8s 13 16 mph 1018.5mb 65f 67f
3:04pm 3.5ft 8s 11 13 mph 1018.9mb 65f 66f
2:04pm 3.5ft 8s 11 13 mph 1019.4mb 65f 66f
1:04pm 3ft 8s 13
mph
1019.9mb 65f 66f
12:04pm 3ft 8s 11 13 mph 1020.1mb 65f 66f
11:04am 3ft 8s 13 16 mph 1020.5mb 65f 66f
10:04am 2.5ft 8s 13 16 mph 1020.8mb 65f 65f
9:04am 1.3ft 4s 13 16 mph 1020.7mb 65f 65f
8:04am 2.5ft 8s 13
mph
1020.6mb 64f 65f
7:04am 2.5ft 8s 9 11 mph 1020.4mb 64f 66f
5:04am 3ft 11s 7 9 mph 1020.2mb 64f 65f
4:04am 3ft 8s 9
mph
1020mb 64f 65f
3:04am 3.5ft 11s 9 11 mph 1019.7mb 65f 65f
2:04am 3.5ft 8s 9 11 mph 1019.7mb 65f 65f
1:04am 2ft 4s 11 13 mph 1020mb 65f 65f
12:04am 3.5ft 8s 11 13 mph 1019.9mb 65f 65f
Mon 08/25 11:04pm 3.5ft 8s 13 16 mph 1019.7mb 65f 65f
10:04pm 3.5ft 8s 13 16 mph 1019.6mb 65f 65f
9:04pm 3.5ft 8s 13 16 mph 1019.6mb 65f 65f
8:04pm  -   -  13 16 mph 1019.6mb 65f 65f
7:04pm 3.5ft 11s 13
mph
1019.3mb 65f 66f
6:04pm 3.5ft 8s 11 13 mph 1019.1mb 65f 66f
5:04pm 3.5ft 8s 11
mph
1019mb 65f 66f
4:04pm 3.5ft 8s 9 11 mph 1019.1mb 65f 67f
3:04pm 3.5ft 8s 11 13 mph 1019.1mb 65f 66f
1:04pm 4ft 8s 11 13 mph 1019.7mb 65f 65f
12:04pm 3.5ft 8s 11 13 mph 1019.7mb 65f 65f
11:04am 3.5ft 8s 11 13 mph 1019.6mb 65f 65f
10:04am 3ft 8s 11 13 mph 1019.3mb 64f 65f
9:04am 3ft 11s 11 13 mph 1019.4mb 64f 65f
8:04am 3ft 8s 11 13 mph 1019.3mb 64f 65f
7:04am 4ft 11s 11
mph
1018.9mb 64f 64f
6:04am 3.5ft 8s 11 13 mph 1018.4mb 64f 65f
5:04am 4.5ft 8s 9 11 mph 1018.1mb 64f 64f
4:04am 4ft 8s 9 11 mph 1018mb 64f 65f
3:04am 3.5ft 8s 9 11 mph 1017.6mb 64f 65f
2:04am 3.5ft 8s 11 13 mph 1017.8mb 64f 65f
1:04am 3ft 8s 11 13 mph 1018.1mb 64f 65f
12:04am 3.5ft 6s 11
mph
1018.3mb 64f 65f
Sun 08/24 11:04pm 3ft 8s 11 13 mph 1018.1mb 64f 65f
9:04pm 2.5ft 8s 11 13 mph 1018.4mb 65f 65f
8:04pm 3ft 8s 11 13 mph 1018.2mb 65f 65f
7:04pm 2.5ft 8s 11 13 mph 1018.1mb 65f 65f
6:04pm 2.5ft 8s 11 13 mph 1018.1mb 65f 66f
5:04pm 2.5ft 8s 11 13 mph 1018.3mb 66f 66f
4:04pm 2.5ft 8s 9 11 mph 1018.2mb 66f 67f